sensor_id;sensor_type;location;lat;lon;timestamp;pressure;altitude;pressure_sealevel;temperature;humidity
48029;BME280;33808;37.368;127.108;2023-03-20T00:00:02;100972.56;;;7.53;nan
48029;BME280;33808;37.368;127.108;2023-03-20T00:02:32;100923.06;;;7.60;nan
48029;BME280;33808;37.368;127.108;2023-03-20T00:05:02;100905.50;;;7.72;nan
48029;BME280;33808;37.368;127.108;2023-03-20T00:10:04;100975.78;;;7.68;nan
48029;BME280;33808;37.368;127.108;2023-03-20T00:12:33;100902.59;;;7.89;nan
48029;BME280;33808;37.368;127.108;2023-03-20T00:15:06;100891.78;;;8.12;nan
48029;BME280;33808;37.368;127.108;2023-03-20T00:17:45;100910.16;;;8.50;nan
48029;BME280;33808;37.368;127.108;2023-03-20T00:20:15;100929.31;;;8.89;nan
48029;BME280;33808;37.368;127.108;2023-03-20T00:22:45;100922.41;;;8.88;nan
48029;BME280;33808;37.368;127.108;2023-03-20T00:25:17;100925.72;;;8.53;nan
48029;BME280;33808;37.368;127.108;2023-03-20T00:27:47;100915.28;;;8.53;nan
48029;BME280;33808;37.368;127.108;2023-03-20T00:30:26;100913.25;;;8.69;nan
48029;BME280;33808;37.368;127.108;2023-03-20T00:32:57;100927.47;;;8.95;nan
48029;BME280;33808;37.368;127.108;2023-03-20T00:35:29;100929.00;;;8.64;nan
48029;BME280;33808;37.368;127.108;2023-03-20T00:37:59;100915.78;;;8.74;nan
48029;BME280;33808;37.368;127.108;2023-03-20T00:40:30;100928.53;;;8.84;nan
48029;BME280;33808;37.368;127.108;2023-03-20T00:43:01;100887.56;;;8.93;nan
48029;BME280;33808;37.368;127.108;2023-03-20T00:45:33;100919.84;;;9.24;nan
48029;BME280;33808;37.368;127.108;2023-03-20T00:48:04;100929.63;;;9.52;nan
48029;BME280;33808;37.368;127.108;2023-03-20T00:50:34;100928.22;;;9.73;nan
48029;BME280;33808;37.368;127.108;2023-03-20T00:53:07;100925.00;;;9.98;nan
48029;BME280;33808;37.368;127.108;2023-03-20T00:55:39;100912.56;;;10.07;nan
48029;BME280;33808;37.368;127.108;2023-03-20T00:58:09;100909.19;;;10.02;nan
48029;BME280;33808;37.368;127.108;2023-03-20T01:00:41;100925.31;;;10.18;nan
48029;BME280;33808;37.368;127.108;2023-03-20T01:03:24;100923.44;;;10.23;nan
48029;BME280;33808;37.368;127.108;2023-03-20T01:05:55;100919.44;;;10.43;nan
48029;BME280;33808;37.368;127.108;2023-03-20T01:08:25;100919.19;;;10.82;nan
48029;BME280;33808;37.368;127.108;2023-03-20T01:10:57;100931.22;;;10.88;nan
48029;BME280;33808;37.368;127.108;2023-03-20T01:13:29;100933.59;;;10.95;nan
48029;BME280;33808;37.368;127.108;2023-03-20T01:15:59;100918.03;;;10.92;nan
48029;BME280;33808;37.368;127.108;2023-03-20T01:20:58;100904.78;;;10.97;nan
48029;BME280;33808;37.368;127.108;2023-03-20T01:25:57;100913.56;;;10.96;nan
48029;BME280;33808;37.368;127.108;2023-03-20T01:28:29;100893.41;;;10.99;nan
48029;BME280;33808;37.368;127.108;2023-03-20T01:31:00;100875.22;;;10.95;nan
48029;BME280;33808;37.368;127.108;2023-03-20T01:33:29;100907.13;;;11.06;nan
48029;BME280;33808;37.368;127.108;2023-03-20T01:35:59;100894.91;;;11.35;nan
48029;BME280;33808;37.368;127.108;2023-03-20T01:38:29;100870.09;;;11.47;nan
48029;BME280;33808;37.368;127.108;2023-03-20T01:41:19;100894.38;;;11.50;nan
48029;BME280;33808;37.368;127.108;2023-03-20T01:43:51;100879.13;;;11.63;nan
48029;BME280;33808;37.368;127.108;2023-03-20T01:46:29;100888.53;;;11.69;nan
48029;BME280;33808;37.368;127.108;2023-03-20T01:51:49;100883.56;;;11.86;nan
48029;BME280;33808;37.368;127.108;2023-03-20T01:54:27;100863.22;;;12.19;nan
48029;BME280;33808;37.368;127.108;2023-03-20T02:02:02;100865.25;;;12.36;nan
48029;BME280;33808;37.368;127.108;2023-03-20T02:04:36;100881.69;;;12.64;nan
48029;BME280;33808;37.368;127.108;2023-03-20T02:07:07;100859.69;;;12.90;nan
48029;BME280;33808;37.368;127.108;2023-03-20T02:09:39;100870.09;;;13.37;nan
48029;BME280;33808;37.368;127.108;2023-03-20T02:12:09;100869.59;;;13.05;nan
48029;BME280;33808;37.368;127.108;2023-03-20T02:14:39;100874.47;;;12.92;nan
48029;BME280;33808;37.368;127.108;2023-03-20T02:17:10;100861.75;;;13.26;nan
48029;BME280;33808;37.368;127.108;2023-03-20T02:28:24;100849.31;;;13.53;nan
48029;BME280;33808;37.368;127.108;2023-03-20T02:34:21;100824.06;;;13.69;nan
48029;BME280;33808;37.368;127.108;2023-03-20T02:40:01;100819.22;;;13.60;nan
48029;BME280;33808;37.368;127.108;2023-03-20T02:43:02;100818.22;;;13.22;nan
48029;BME280;33808;37.368;127.108;2023-03-20T02:51:24;100818.59;;;13.34;nan
48029;BME280;33808;37.368;127.108;2023-03-20T02:57:14;100815.75;;;13.80;nan
48029;BME280;33808;37.368;127.108;2023-03-20T03:00:01;100816.44;;;13.84;nan
48029;BME280;33808;37.368;127.108;2023-03-20T03:02:46;100812.47;;;13.75;nan
48029;BME280;33808;37.368;127.108;2023-03-20T03:07:55;100784.94;;;14.23;nan
48029;BME280;33808;37.368;127.108;2023-03-20T03:10:54;100772.88;;;13.99;nan
48029;BME280;33808;37.368;127.108;2023-03-20T03:13:28;100752.31;;;14.08;nan
48029;BME280;33808;37.368;127.108;2023-03-20T03:21:05;100750.66;;;13.87;nan
48029;BME280;33808;37.368;127.108;2023-03-20T03:29:15;100736.38;;;14.49;nan
48029;BME280;33808;37.368;127.108;2023-03-20T03:31:46;100744.69;;;14.40;nan
48029;BME280;33808;37.368;127.108;2023-03-20T03:39:36;100765.22;;;14.13;nan
48029;BME280;33808;37.368;127.108;2023-03-20T03:47:36;100726.69;;;14.50;nan
48029;BME280;33808;37.368;127.108;2023-03-20T03:52:51;100726.50;;;15.08;nan
48029;BME280;33808;37.368;127.108;2023-03-20T03:55:31;100679.34;;;15.04;nan
48029;BME280;33808;37.368;127.108;2023-03-20T03:58:09;100705.81;;;14.66;nan
48029;BME280;33808;37.368;127.108;2023-03-20T04:03:11;100723.16;;;15.05;nan
48029;BME280;33808;37.368;127.108;2023-03-20T04:05:43;100700.94;;;15.11;nan
48029;BME280;33808;37.368;127.108;2023-03-20T04:10:44;100680.03;;;15.07;nan
48029;BME280;33808;37.368;127.108;2023-03-20T04:13:14;100665.56;;;14.99;nan
48029;BME280;33808;37.368;127.108;2023-03-20T04:15:44;100668.81;;;15.21;nan
48029;BME280;33808;37.368;127.108;2023-03-20T04:18:15;100644.38;;;15.02;nan
48029;BME280;33808;37.368;127.108;2023-03-20T04:20:46;100648.44;;;15.58;nan
48029;BME280;33808;37.368;127.108;2023-03-20T04:23:16;100654.41;;;15.44;nan
48029;BME280;33808;37.368;127.108;2023-03-20T04:25:46;100644.50;;;15.50;nan
48029;BME280;33808;37.368;127.108;2023-03-20T04:28:15;100666.00;;;15.24;nan
48029;BME280;33808;37.368;127.108;2023-03-20T04:30:54;100647.16;;;15.32;nan
48029;BME280;33808;37.368;127.108;2023-03-20T04:33:25;100650.22;;;15.24;nan
48029;BME280;33808;37.368;127.108;2023-03-20T04:35:55;100657.91;;;15.45;nan
48029;BME280;33808;37.368;127.108;2023-03-20T04:38:25;100663.19;;;15.61;nan
48029;BME280;33808;37.368;127.108;2023-03-20T04:40:55;100649.56;;;15.86;nan
48029;BME280;33808;37.368;127.108;2023-03-20T04:45:54;100624.09;;;15.37;nan
48029;BME280;33808;37.368;127.108;2023-03-20T04:48:23;100653.56;;;15.77;nan
48029;BME280;33808;37.368;127.108;2023-03-20T04:50:55;100655.72;;;15.69;nan
48029;BME280;33808;37.368;127.108;2023-03-20T04:53:25;100634.94;;;15.80;nan
48029;BME280;33808;37.368;127.108;2023-03-20T04:55:55;100639.97;;;15.85;nan
48029;BME280;33808;37.368;127.108;2023-03-20T04:58:28;100650.84;;;15.79;nan
48029;BME280;33808;37.368;127.108;2023-03-20T05:00:57;100629.75;;;15.95;nan
48029;BME280;33808;37.368;127.108;2023-03-20T05:03:27;100625.69;;;15.89;nan
48029;BME280;33808;37.368;127.108;2023-03-20T05:05:57;100620.56;;;15.86;nan
48029;BME280;33808;37.368;127.108;2023-03-20T05:08:27;100614.06;;;15.77;nan
48029;BME280;33808;37.368;127.108;2023-03-20T05:10:56;100648.28;;;16.09;nan
48029;BME280;33808;37.368;127.108;2023-03-20T05:13:26;100639.09;;;16.16;nan
48029;BME280;33808;37.368;127.108;2023-03-20T05:15:56;100638.44;;;16.13;nan
48029;BME280;33808;37.368;127.108;2023-03-20T05:18:25;100635.28;;;16.06;nan
48029;BME280;33808;37.368;127.108;2023-03-20T05:20:55;100636.06;;;15.92;nan
48029;BME280;33808;37.368;127.108;2023-03-20T05:23:25;100638.88;;;16.05;nan
48029;BME280;33808;37.368;127.108;2023-03-20T05:25:54;100646.06;;;16.17;nan
48029;BME280;33808;37.368;127.108;2023-03-20T05:28:25;100635.47;;;15.87;nan
48029;BME280;33808;37.368;127.108;2023-03-20T05:30:55;100620.75;;;15.99;nan
48029;BME280;33808;37.368;127.108;2023-03-20T05:33:25;100623.13;;;15.72;nan
48029;BME280;33808;37.368;127.108;2023-03-20T05:38:24;100605.59;;;16.02;nan
48029;BME280;33808;37.368;127.108;2023-03-20T05:40:58;100598.34;;;15.92;nan
48029;BME280;33808;37.368;127.108;2023-03-20T05:43:28;100599.78;;;15.97;nan
48029;BME280;33808;37.368;127.108;2023-03-20T05:45:58;100600.16;;;16.06;nan
48029;BME280;33808;37.368;127.108;2023-03-20T05:48:28;100580.81;;;15.75;nan
48029;BME280;33808;37.368;127.108;2023-03-20T05:50:58;100580.97;;;15.72;nan
48029;BME280;33808;37.368;127.108;2023-03-20T05:53:28;100583.34;;;15.60;nan
48029;BME280;33808;37.368;127.108;2023-03-20T05:55:57;100575.53;;;15.59;nan
48029;BME280;33808;37.368;127.108;2023-03-20T05:58:27;100563.03;;;15.62;nan
48029;BME280;33808;37.368;127.108;2023-03-20T06:00:57;100581.28;;;15.65;nan
48029;BME280;33808;37.368;127.108;2023-03-20T06:03:27;100569.59;;;15.87;nan
48029;BME280;33808;37.368;127.108;2023-03-20T06:05:57;100570.00;;;15.95;nan
48029;BME280;33808;37.368;127.108;2023-03-20T06:08:26;100553.03;;;15.85;nan
48029;BME280;33808;37.368;127.108;2023-03-20T06:10:58;100565.47;;;16.13;nan
48029;BME280;33808;37.368;127.108;2023-03-20T06:13:28;100575.38;;;15.94;nan
48029;BME280;33808;37.368;127.108;2023-03-20T06:15:59;100571.63;;;15.82;nan
48029;BME280;33808;37.368;127.108;2023-03-20T06:18:29;100547.31;;;15.45;nan
48029;BME280;33808;37.368;127.108;2023-03-20T06:20:59;100570.69;;;15.51;nan
48029;BME280;33808;37.368;127.108;2023-03-20T06:23:29;100554.13;;;15.49;nan
48029;BME280;33808;37.368;127.108;2023-03-20T06:25:59;100574.47;;;15.79;nan
48029;BME280;33808;37.368;127.108;2023-03-20T06:28:29;100589.84;;;15.87;nan
48029;BME280;33808;37.368;127.108;2023-03-20T06:30:59;100564.47;;;15.52;nan
48029;BME280;33808;37.368;127.108;2023-03-20T06:33:29;100576.00;;;15.18;nan
48029;BME280;33808;37.368;127.108;2023-03-20T06:35:59;100573.81;;;15.42;nan
48029;BME280;33808;37.368;127.108;2023-03-20T06:38:29;100573.47;;;15.48;nan
48029;BME280;33808;37.368;127.108;2023-03-20T06:40:59;100556.28;;;15.25;nan
48029;BME280;33808;37.368;127.108;2023-03-20T06:43:28;100565.31;;;15.53;nan
48029;BME280;33808;37.368;127.108;2023-03-20T06:45:58;100580.09;;;15.71;nan
48029;BME280;33808;37.368;127.108;2023-03-20T06:48:28;100567.00;;;15.38;nan
48029;BME280;33808;37.368;127.108;2023-03-20T06:50:58;100563.47;;;15.55;nan
48029;BME280;33808;37.368;127.108;2023-03-20T06:53:27;100573.00;;;15.73;nan
48029;BME280;33808;37.368;127.108;2023-03-20T06:55:57;100573.00;;;15.89;nan
48029;BME280;33808;37.368;127.108;2023-03-20T06:58:27;100563.38;;;15.72;nan
48029;BME280;33808;37.368;127.108;2023-03-20T07:00:57;100562.75;;;15.35;nan
48029;BME280;33808;37.368;127.108;2023-03-20T07:03:26;100577.06;;;15.63;nan
48029;BME280;33808;37.368;127.108;2023-03-20T07:05:56;100565.97;;;15.74;nan
48029;BME280;33808;37.368;127.108;2023-03-20T07:10:54;100558.53;;;15.80;nan
48029;BME280;33808;37.368;127.108;2023-03-20T07:13:25;100571.97;;;15.76;nan
48029;BME280;33808;37.368;127.108;2023-03-20T07:15:56;100548.00;;;15.64;nan
48029;BME280;33808;37.368;127.108;2023-03-20T07:18:31;100568.22;;;15.64;nan
48029;BME280;33808;37.368;127.108;2023-03-20T07:23:32;100551.75;;;15.60;nan
48029;BME280;33808;37.368;127.108;2023-03-20T07:26:05;100517.25;;;15.81;nan
48029;BME280;33808;37.368;127.108;2023-03-20T07:31:04;100559.03;;;15.71;nan
48029;BME280;33808;37.368;127.108;2023-03-20T07:33:34;100555.16;;;15.78;nan
48029;BME280;33808;37.368;127.108;2023-03-20T07:38:34;100543.72;;;15.30;nan
48029;BME280;33808;37.368;127.108;2023-03-20T07:41:04;100552.69;;;14.94;nan
48029;BME280;33808;37.368;127.108;2023-03-20T07:43:33;100565.72;;;14.80;nan
48029;BME280;33808;37.368;127.108;2023-03-20T07:46:05;100590.31;;;14.79;nan
48029;BME280;33808;37.368;127.108;2023-03-20T07:48:35;100526.53;;;14.91;nan
48029;BME280;33808;37.368;127.108;2023-03-20T07:56:03;100549.22;;;14.76;nan
48029;BME280;33808;37.368;127.108;2023-03-20T07:58:33;100575.25;;;14.98;nan
48029;BME280;33808;37.368;127.108;2023-03-20T08:01:03;100556.47;;;15.22;nan
48029;BME280;33808;37.368;127.108;2023-03-20T08:03:33;100549.88;;;15.46;nan
48029;BME280;33808;37.368;127.108;2023-03-20T08:06:03;100540.69;;;15.54;nan
48029;BME280;33808;37.368;127.108;2023-03-20T08:13:33;100537.06;;;14.91;nan
48029;BME280;33808;37.368;127.108;2023-03-20T08:16:03;100536.34;;;14.72;nan
48029;BME280;33808;37.368;127.108;2023-03-20T08:18:33;100543.47;;;14.69;nan
48029;BME280;33808;37.368;127.108;2023-03-20T08:23:32;100534.84;;;14.83;nan
48029;BME280;33808;37.368;127.108;2023-03-20T08:26:01;100526.31;;;15.12;nan
48029;BME280;33808;37.368;127.108;2023-03-20T08:28:31;100534.66;;;15.20;nan
48029;BME280;33808;37.368;127.108;2023-03-20T08:31:16;100550.28;;;14.89;nan
48029;BME280;33808;37.368;127.108;2023-03-20T08:33:46;100505.66;;;14.88;nan
48029;BME280;33808;37.368;127.108;2023-03-20T08:36:17;100545.00;;;14.74;nan
48029;BME280;33808;37.368;127.108;2023-03-20T08:38:50;100545.50;;;14.80;nan
48029;BME280;33808;37.368;127.108;2023-03-20T08:41:19;100525.34;;;14.97;nan
48029;BME280;33808;37.368;127.108;2023-03-20T08:43:49;100525.34;;;14.97;nan
48029;BME280;33808;37.368;127.108;2023-03-20T08:46:19;100505.81;;;14.85;nan
48029;BME280;33808;37.368;127.108;2023-03-20T08:48:48;100534.16;;;14.80;nan
48029;BME280;33808;37.368;127.108;2023-03-20T08:51:18;100530.59;;;14.81;nan
48029;BME280;33808;37.368;127.108;2023-03-20T08:53:48;100526.25;;;14.80;nan
48029;BME280;33808;37.368;127.108;2023-03-20T08:56:18;100495.31;;;14.67;nan
48029;BME280;33808;37.368;127.108;2023-03-20T08:58:47;100526.25;;;14.45;nan
48029;BME280;33808;37.368;127.108;2023-03-20T09:03:48;100507.34;;;14.03;nan
48029;BME280;33808;37.368;127.108;2023-03-20T09:06:18;100538.91;;;13.84;nan
48029;BME280;33808;37.368;127.108;2023-03-20T09:08:48;100536.25;;;13.67;nan
48029;BME280;33808;37.368;127.108;2023-03-20T09:11:18;100535.59;;;13.81;nan
48029;BME280;33808;37.368;127.108;2023-03-20T09:16:17;100544.50;;;13.40;nan
48029;BME280;33808;37.368;127.108;2023-03-20T09:18:47;100548.44;;;13.30;nan
48029;BME280;33808;37.368;127.108;2023-03-20T09:21:17;100536.50;;;13.04;nan
48029;BME280;33808;37.368;127.108;2023-03-20T09:23:46;100518.38;;;13.18;nan
48029;BME280;33808;37.368;127.108;2023-03-20T09:26:16;100538.59;;;13.16;nan
48029;BME280;33808;37.368;127.108;2023-03-20T09:28:46;100539.06;;;13.05;nan
48029;BME280;33808;37.368;127.108;2023-03-20T09:31:16;100546.59;;;13.13;nan
48029;BME280;33808;37.368;127.108;2023-03-20T09:33:46;100537.53;;;13.01;nan
48029;BME280;33808;37.368;127.108;2023-03-20T09:36:15;100534.66;;;13.06;nan
48029;BME280;33808;37.368;127.108;2023-03-20T09:38:45;100535.50;;;13.06;nan
48029;BME280;33808;37.368;127.108;2023-03-20T09:41:22;100523.75;;;12.96;nan
48029;BME280;33808;37.368;127.108;2023-03-20T09:44:08;100533.66;;;13.08;nan
48029;BME280;33808;37.368;127.108;2023-03-20T09:52:33;100518.34;;;12.80;nan
48029;BME280;33808;37.368;127.108;2023-03-20T09:55:13;100518.31;;;12.61;nan
48029;BME280;33808;37.368;127.108;2023-03-20T09:57:51;100495.06;;;12.53;nan
48029;BME280;33808;37.368;127.108;2023-03-20T10:00:26;100506.31;;;12.55;nan
48029;BME280;33808;37.368;127.108;2023-03-20T10:03:13;100513.91;;;12.62;nan
48029;BME280;33808;37.368;127.108;2023-03-20T10:05:53;100513.84;;;12.43;nan
48029;BME280;33808;37.368;127.108;2023-03-20T10:08:29;100525.19;;;12.43;nan
48029;BME280;33808;37.368;127.108;2023-03-20T10:25:21;100517.19;;;12.26;nan
48029;BME280;33808;37.368;127.108;2023-03-20T10:28:02;100497.72;;;11.90;nan
48029;BME280;33808;37.368;127.108;2023-03-20T10:33:56;100497.91;;;12.06;nan
48029;BME280;33808;37.368;127.108;2023-03-20T10:41:59;100481.78;;;11.29;nan
48029;BME280;33808;37.368;127.108;2023-03-20T10:44:36;100523.63;;;11.29;nan
48029;BME280;33808;37.368;127.108;2023-03-20T10:47:10;100496.91;;;10.98;nan
48029;BME280;33808;37.368;127.108;2023-03-20T10:52:30;100496.88;;;11.22;nan
48029;BME280;33808;37.368;127.108;2023-03-20T10:55:12;100495.81;;;11.28;nan
48029;BME280;33808;37.368;127.108;2023-03-20T10:57:45;100500.75;;;11.12;nan
48029;BME280;33808;37.368;127.108;2023-03-20T11:00:20;100498.28;;;10.60;nan
48029;BME280;33808;37.368;127.108;2023-03-20T11:02:51;100511.94;;;10.43;nan
48029;BME280;33808;37.368;127.108;2023-03-20T11:10:34;100480.19;;;9.77;nan
48029;BME280;33808;37.368;127.108;2023-03-20T11:13:43;100495.72;;;10.06;nan
48029;BME280;33808;37.368;127.108;2023-03-20T11:16:38;100457.41;;;9.82;nan
48029;BME280;33808;37.368;127.108;2023-03-20T11:19:10;100478.03;;;10.16;nan
48029;BME280;33808;37.368;127.108;2023-03-20T11:21:47;100501.13;;;10.27;nan
48029;BME280;33808;37.368;127.108;2023-03-20T11:24:41;100505.22;;;10.36;nan
48029;BME280;33808;37.368;127.108;2023-03-20T11:27:29;100508.44;;;10.44;nan
48029;BME280;33808;37.368;127.108;2023-03-20T11:30:04;100504.84;;;9.95;nan
48029;BME280;33808;37.368;127.108;2023-03-20T11:32:40;100509.84;;;10.01;nan
48029;BME280;33808;37.368;127.108;2023-03-20T11:35:29;100494.91;;;9.79;nan
48029;BME280;33808;37.368;127.108;2023-03-20T11:38:28;100508.66;;;9.56;nan
48029;BME280;33808;37.368;127.108;2023-03-20T11:41:04;100491.41;;;9.79;nan
48029;BME280;33808;37.368;127.108;2023-03-20T11:46:09;100513.13;;;9.81;nan
48029;BME280;33808;37.368;127.108;2023-03-20T11:48:45;100492.69;;;9.67;nan
48029;BME280;33808;37.368;127.108;2023-03-20T11:51:19;100505.94;;;9.61;nan
48029;BME280;33808;37.368;127.108;2023-03-20T11:53:59;100505.00;;;9.62;nan
48029;BME280;33808;37.368;127.108;2023-03-20T11:56:31;100506.41;;;9.74;nan
48029;BME280;33808;37.368;127.108;2023-03-20T11:59:13;100535.69;;;9.25;nan
48029;BME280;33808;37.368;127.108;2023-03-20T12:01:52;100525.28;;;9.54;nan
48029;BME280;33808;37.368;127.108;2023-03-20T12:04:29;100525.84;;;9.63;nan
48029;BME280;33808;37.368;127.108;2023-03-20T12:07:27;100528.41;;;9.65;nan
48029;BME280;33808;37.368;127.108;2023-03-20T12:10:00;100539.31;;;9.50;nan
48029;BME280;33808;37.368;127.108;2023-03-20T12:15:25;100492.34;;;9.21;nan
48029;BME280;33808;37.368;127.108;2023-03-20T12:26:08;100527.75;;;8.99;nan
48029;BME280;33808;37.368;127.108;2023-03-20T12:31:43;100539.09;;;9.27;nan
48029;BME280;33808;37.368;127.108;2023-03-20T12:34:26;100535.84;;;9.19;nan
48029;BME280;33808;37.368;127.108;2023-03-20T12:39:32;100531.44;;;8.92;nan
48029;BME280;33808;37.368;127.108;2023-03-20T12:47:50;100532.38;;;8.89;nan
48029;BME280;33808;37.368;127.108;2023-03-20T12:50:43;100541.84;;;8.92;nan
48029;BME280;33808;37.368;127.108;2023-03-20T12:59:06;100562.13;;;9.12;nan
48029;BME280;33808;37.368;127.108;2023-03-20T13:04:56;100529.47;;;9.00;nan
48029;BME280;33808;37.368;127.108;2023-03-20T13:10:38;100541.78;;;8.95;nan
48029;BME280;33808;37.368;127.108;2023-03-20T13:16:30;100553.44;;;8.81;nan
48029;BME280;33808;37.368;127.108;2023-03-20T13:19:10;100566.44;;;8.83;nan
48029;BME280;33808;37.368;127.108;2023-03-20T13:22:05;100603.97;;;8.76;nan
48029;BME280;33808;37.368;127.108;2023-03-20T13:24:49;100573.72;;;8.70;nan
48029;BME280;33808;37.368;127.108;2023-03-20T13:30:36;100549.28;;;8.40;nan
48029;BME280;33808;37.368;127.108;2023-03-20T13:41:02;100555.00;;;8.56;nan
48029;BME280;33808;37.368;127.108;2023-03-20T13:43:40;100550.81;;;8.50;nan
48029;BME280;33808;37.368;127.108;2023-03-20T13:46:30;100552.78;;;8.39;nan
48029;BME280;33808;37.368;127.108;2023-03-20T13:49:26;100532.09;;;8.32;nan
48029;BME280;33808;37.368;127.108;2023-03-20T13:51:59;100562.13;;;8.47;nan
48029;BME280;33808;37.368;127.108;2023-03-20T14:05:47;100609.78;;;8.51;nan
48029;BME280;33808;37.368;127.108;2023-03-20T14:16:43;100653.88;;;8.20;nan
48029;BME280;33808;37.368;127.108;2023-03-20T14:19:18;100645.03;;;8.28;nan
48029;BME280;33808;37.368;127.108;2023-03-20T14:21:52;100600.09;;;8.20;nan
48029;BME280;33808;37.368;127.108;2023-03-20T14:29:36;100612.66;;;8.03;nan
48029;BME280;33808;37.368;127.108;2023-03-20T14:34:52;100620.34;;;8.09;nan
48029;BME280;33808;37.368;127.108;2023-03-20T14:37:38;100616.84;;;8.08;nan
48029;BME280;33808;37.368;127.108;2023-03-20T14:40:19;100607.34;;;8.07;nan
48029;BME280;33808;37.368;127.108;2023-03-20T14:45:36;100626.41;;;8.08;nan
48029;BME280;33808;37.368;127.108;2023-03-20T14:48:32;100641.53;;;8.29;nan
48029;BME280;33808;37.368;127.108;2023-03-20T14:53:35;100607.69;;;8.29;nan
48029;BME280;33808;37.368;127.108;2023-03-20T14:56:14;100637.97;;;8.33;nan
48029;BME280;33808;37.368;127.108;2023-03-20T14:58:50;100602.81;;;8.16;nan
48029;BME280;33808;37.368;127.108;2023-03-20T15:06:31;100626.59;;;8.36;nan
48029;BME280;33808;37.368;127.108;2023-03-20T15:09:06;100650.94;;;8.35;nan
48029;BME280;33808;37.368;127.108;2023-03-20T15:11:37;100645.31;;;8.54;nan
48029;BME280;33808;37.368;127.108;2023-03-20T15:14:08;100644.53;;;8.50;nan
48029;BME280;33808;37.368;127.108;2023-03-20T15:16:38;100630.56;;;8.54;nan
48029;BME280;33808;37.368;127.108;2023-03-20T15:19:19;100636.94;;;8.41;nan
48029;BME280;33808;37.368;127.108;2023-03-20T15:21:48;100638.38;;;8.54;nan
48029;BME280;33808;37.368;127.108;2023-03-20T15:24:24;100678.22;;;8.58;nan
48029;BME280;33808;37.368;127.108;2023-03-20T15:26:59;100637.91;;;8.37;nan
48029;BME280;33808;37.368;127.108;2023-03-20T15:29:31;100640.03;;;8.57;nan
48029;BME280;33808;37.368;127.108;2023-03-20T15:32:02;100639.19;;;8.56;nan
48029;BME280;33808;37.368;127.108;2023-03-20T15:34:42;100687.91;;;8.51;nan
48029;BME280;33808;37.368;127.108;2023-03-20T15:37:14;100681.91;;;8.47;nan
48029;BME280;33808;37.368;127.108;2023-03-20T15:39:47;100648.81;;;8.15;nan
48029;BME280;33808;37.368;127.108;2023-03-20T15:42:20;100649.66;;;8.16;nan
48029;BME280;33808;37.368;127.108;2023-03-20T15:44:52;100641.91;;;7.73;nan
48029;BME280;33808;37.368;127.108;2023-03-20T15:47:24;100647.19;;;8.11;nan
48029;BME280;33808;37.368;127.108;2023-03-20T15:49:58;100644.66;;;8.06;nan
48029;BME280;33808;37.368;127.108;2023-03-20T15:55:15;100638.47;;;8.12;nan
48029;BME280;33808;37.368;127.108;2023-03-20T15:57:46;100641.25;;;8.04;nan
48029;BME280;33808;37.368;127.108;2023-03-20T16:02:50;100623.06;;;8.03;nan
48029;BME280;33808;37.368;127.108;2023-03-20T16:05:24;100642.91;;;8.07;nan
48029;BME280;33808;37.368;127.108;2023-03-20T16:07:55;100647.22;;;8.08;nan
48029;BME280;33808;37.368;127.108;2023-03-20T16:10:29;100640.81;;;7.85;nan
48029;BME280;33808;37.368;127.108;2023-03-20T16:13:01;100636.41;;;7.89;nan
48029;BME280;33808;37.368;127.108;2023-03-20T16:15:33;100659.03;;;7.84;nan
48029;BME280;33808;37.368;127.108;2023-03-20T16:18:04;100658.19;;;7.83;nan
48029;BME280;33808;37.368;127.108;2023-03-20T16:23:13;100634.78;;;8.21;nan
48029;BME280;33808;37.368;127.108;2023-03-20T16:25:48;100638.56;;;8.09;nan
48029;BME280;33808;37.368;127.108;2023-03-20T16:28:18;100654.06;;;8.12;nan
48029;BME280;33808;37.368;127.108;2023-03-20T16:30:50;100624.47;;;8.16;nan
48029;BME280;33808;37.368;127.108;2023-03-20T16:33:20;100595.84;;;8.16;nan
48029;BME280;33808;37.368;127.108;2023-03-20T16:35:50;100621.00;;;8.17;nan
48029;BME280;33808;37.368;127.108;2023-03-20T16:38:25;100626.13;;;8.20;nan
48029;BME280;33808;37.368;127.108;2023-03-20T16:41:15;100618.56;;;8.09;nan
48029;BME280;33808;37.368;127.108;2023-03-20T16:43:48;100605.59;;;8.08;nan
48029;BME280;33808;37.368;127.108;2023-03-20T16:46:25;100619.25;;;8.18;nan
48029;BME280;33808;37.368;127.108;2023-03-20T16:52:11;100607.00;;;7.84;nan
48029;BME280;33808;37.368;127.108;2023-03-20T16:54:42;100589.13;;;7.70;nan
48029;BME280;33808;37.368;127.108;2023-03-20T16:57:16;100611.84;;;7.62;nan
48029;BME280;33808;37.368;127.108;2023-03-20T17:02:26;100616.19;;;7.61;nan
48029;BME280;33808;37.368;127.108;2023-03-20T17:07:30;100619.00;;;7.50;nan
48029;BME280;33808;37.368;127.108;2023-03-20T17:12:47;100666.81;;;6.98;nan
48029;BME280;33808;37.368;127.108;2023-03-20T17:15:20;100574.63;;;7.18;nan
48029;BME280;33808;37.368;127.108;2023-03-20T17:22:53;100596.53;;;7.06;nan
48029;BME280;33808;37.368;127.108;2023-03-20T17:25:22;100582.53;;;7.13;nan
48029;BME280;33808;37.368;127.108;2023-03-20T17:27:52;100587.19;;;6.95;nan
48029;BME280;33808;37.368;127.108;2023-03-20T17:30:23;100581.91;;;7.00;nan
48029;BME280;33808;37.368;127.108;2023-03-20T17:32:53;100593.28;;;6.93;nan
48029;BME280;33808;37.368;127.108;2023-03-20T17:35:23;100593.16;;;7.01;nan
48029;BME280;33808;37.368;127.108;2023-03-20T17:37:53;100587.72;;;7.13;nan
48029;BME280;33808;37.368;127.108;2023-03-20T17:40:22;100590.28;;;7.14;nan